Time;durP1;ratioP1;P1;durP2;ratioP2;P2;SDS_P1;SDS_P2;PMS_P1;PMS_P2;Temp;Humidity;BMP_temperature;BMP_pressure;BME280_temperature;BME280_humidity;BME280_pressure;Samples;Min_cycle;Max_cycle;Signal;HPM_P1;HPM_P2
2023/01/26 00:00:13;;;;;;;;;;;;;;;;;;1034657;28;3772;-54
2023/01/26 00:01:10;;;;;;;;;;;;;;;;;;1035093;28;4176;-51
2023/01/26 00:01:42;;;;;;;;;;;;;;;;;;1034189;28;2669;-52
2023/01/26 00:02:12;;;;;;;;;;;;;;;;;;1035092;28;4229;-54
2023/01/26 00:02:42;;;;;;;;;;;;;;;;;;1035213;28;2106;-51
2023/01/26 00:03:13;;;;;;;;;;;;;;;;;;1035651;28;3948;-52
2023/01/26 00:03:43;;;;;;;;;;;;;;;;;;1036280;28;2810;-50
2023/01/26 00:04:14;;;;;;;;;;;;;;;;;;1037525;28;4316;-50
2023/01/26 00:04:44;;;;;;;;;;;;;;;;;;1035817;28;2393;-54
2023/01/26 00:05:14;;;;;;;;;;;;;;;;;;1035887;28;4329;-54
2023/01/26 00:05:44;;;;;;;;;;;;;;;;;;1035344;28;2813;-48
2023/01/26 00:06:16;;;;;;;;;;;;;;;;;;1036784;28;3816;-51
2023/01/26 00:06:46;;;;;;;;;;;;;;;;;;1036136;28;3905;-48
2023/01/26 00:07:16;;;;;;;;;;;;;;;;;;1034312;28;2185;-51
2023/01/26 00:07:47;;;;;;;;;;;;;;;;;;1035054;28;3985;-52
2023/01/26 00:08:17;;;;;;;;;;;;;;;;;;1033839;28;1633;-52
2023/01/26 00:08:48;;;;;;;;;;;;;;;;;;1035238;28;4063;-51
2023/01/26 00:09:18;;;;;;;;;;;;;;;;;;1038050;28;2050;-48
2023/01/26 00:09:48;;;;;;;;;;;;;;;;;;1034319;28;4044;-53
2023/01/26 00:10:19;;;;;;;;;;;;;;;;;;1034908;28;2903;-50
2023/01/26 00:10:50;;;;;;;;;;;;;;;;;;1035220;28;3966;-50
2023/01/26 00:11:25;;;;;;;;;;;;;;;;;;1036163;28;2534;-50
2023/01/26 00:11:55;;;;;;;;;;;;;;;;;;1035180;28;4076;-52
2023/01/26 00:12:26;;;;;;;;;;;;;;;;;;1035115;28;2814;-51
2023/01/26 00:12:56;;;;;;;;;;;;;;;;;;1034851;28;4135;-52
2023/01/26 00:13:26;;;;;;;;;;;;;;;;;;1041976;28;2005;-47
2023/01/26 00:14:03;;;;;;;;;;;;;;;;;;1039965;28;4089;-49
2023/01/26 00:14:48;;;;;;;;;;;;;;;;;;1034829;28;2044;-51
2023/01/26 00:15:18;;;;;;;;;;;;;;;;;;1036546;28;4063;-48
2023/01/26 00:15:49;;;;;;;;;;;;;;;;;;1034618;28;3999;-51
2023/01/26 00:16:19;;;;;;;;;;;;;;;;;;1035348;28;4109;-51
2023/01/26 00:16:49;;;;;;;;;;;;;;;;;;1034410;28;3842;-52
2023/01/26 00:17:26;;;;;;;;;;;;;;;;;;1036170;28;3240;-50
2023/01/26 00:17:56;;;;;;;;;;;;;;;;;;1035804;28;3916;-52
2023/01/26 00:18:26;;;;;;;;;;;;;;;;;;1034375;28;2278;-54
2023/01/26 00:18:57;;;;;;;;;;;;;;;;;;1036024;28;3908;-51
2023/01/26 00:19:27;;;;;;;;;;;;;;;;;;1036601;28;2404;-49
2023/01/26 00:19:57;;;;;;;;;;;;;;;;;;1034811;28;3958;-50
2023/01/26 00:20:28;;;;;;;;;;;;;;;;;;1036175;28;2937;-52
2023/01/26 00:20:59;;;;;;;;;;;;;;;;;;1036112;28;4254;-51
2023/01/26 00:21:30;;;;;;;;;;;;;;;;;;1034535;28;2937;-56
2023/01/26 00:22:00;;;;;;;;;;;;;;;;;;1037624;28;4398;-49
2023/01/26 00:22:30;;;;;;;;;;;;;;;;;;1037727;28;2130;-52
2023/01/26 00:23:01;;;;;;;;;;;;;;;;;;1036009;28;3893;-52
2023/01/26 00:23:32;;;;;;;;;;;;;;;;;;1036721;28;2858;-54
2023/01/26 00:24:03;;;;;;;;;;;;;;;;;;1035519;28;3872;-49
2023/01/26 00:24:33;;;;;;;;;;;;;;;;;;1037343;28;2444;-54
2023/01/26 00:25:04;;;;;;;;;;;;;;;;;;1035361;28;4161;-51
2023/01/26 00:25:36;;;;;;;;;;;;;;;;;;1036450;28;2809;-54
2023/01/26 00:26:07;;;;;;;;;;;;;;;;;;1037058;28;4114;-50
2023/01/26 00:26:37;;;;;;;;;;;;;;;;;;1036184;28;3318;-54
2023/01/26 00:27:07;;;;;;;;;;;;;;;;;;1034618;28;4137;-51
2023/01/26 00:27:38;;;;;;;;;;;;;;;;;;1034836;28;1753;-52
2023/01/26 00:28:08;;;;;;;;;;;;;;;;;;1034862;28;3872;-52
2023/01/26 00:28:38;;;;;;;;;;;;;;;;;;1037348;28;2387;-50
2023/01/26 00:29:08;;;;;;;;;;;;;;;;;;1035144;28;3872;-51
2023/01/26 00:29:45;;;;;;;;;;;;;;;;;;1036399;28;2295;-50
2023/01/26 00:30:22;;;;;;;;;;;;;;;;;;1039346;28;3963;-54
2023/01/26 00:31:26;;;;;;;;;;;;;;;;;;1039696;28;3890;-51
2023/01/26 00:31:56;;;;;;;;;;;;;;;;;;1038612;28;3817;-52
2023/01/26 00:32:26;;;;;;;;;;;;;;;;;;1041629;28;2184;-50
2023/01/26 00:32:57;;;;;;;;;;;;;;;;;;1042335;28;3986;-52
2023/01/26 00:33:27;;;;;;;;;;;;;;;;;;1039809;28;2168;-50
2023/01/26 00:33:57;;;;;;;;;;;;;;;;;;1039746;28;4045;-50
2023/01/26 00:34:28;;;;;;;;;;;;;;;;;;1038803;28;2719;-51
2023/01/26 00:34:58;;;;;;;;;;;;;;;;;;1038821;28;4064;-51
2023/01/26 00:35:28;;;;;;;;;;;;;;;;;;1039195;28;3079;-54
2023/01/26 00:35:58;;;;;;;;;;;;;;;;;;1041223;28;4045;-54
2023/01/26 00:36:29;;;;;;;;;;;;;;;;;;1039626;28;2995;-51
2023/01/26 00:36:59;;;;;;;;;;;;;;;;;;1038873;28;3889;-54
2023/01/26 00:37:29;;;;;;;;;;;;;;;;;;1039924;28;2780;-50
2023/01/26 00:37:59;;;;;;;;;;;;;;;;;;1034171;28;4489;-53
2023/01/26 00:38:30;;;;;;;;;;;;;;;;;;1035248;28;2749;-51
2023/01/26 00:39:01;;;;;;;;;;;;;;;;;;1036641;28;4085;-50
2023/01/26 00:39:31;;;;;;;;;;;;;;;;;;1036909;28;1627;-50
2023/01/26 00:40:02;;;;;;;;;;;;;;;;;;1041090;28;3949;-51
2023/01/26 00:40:32;;;;;;;;;;;;;;;;;;1039442;28;2710;-48
2023/01/26 00:41:02;;;;;;;;;;;;;;;;;;1038315;28;3883;-52
2023/01/26 00:42:23;;;;;;;;;;;;;;;;;;1039086;28;3718;-56
2023/01/26 00:42:53;;;;;;;;;;;;;;;;;;1039538;28;4406;-55
2023/01/26 00:43:23;;;;;;;;;;;;;;;;;;1040274;28;2038;-51
2023/01/26 00:43:53;;;;;;;;;;;;;;;;;;1037985;28;4263;-54
2023/01/26 00:44:24;;;;;;;;;;;;;;;;;;1038973;28;2830;-51
2023/01/26 00:44:54;;;;;;;;;;;;;;;;;;1040524;28;3947;-51
2023/01/26 00:45:24;;;;;;;;;;;;;;;;;;1040365;28;2822;-49
2023/01/26 00:45:55;;;;;;;;;;;;;;;;;;1040737;28;3809;-50
2023/01/26 00:46:25;;;;;;;;;;;;;;;;;;1041334;28;3090;-51
2023/01/26 00:46:55;;;;;;;;;;;;;;;;;;1038688;28;4058;-52
2023/01/26 00:47:25;;;;;;;;;;;;;;;;;;1038646;28;2847;-51
2023/01/26 00:47:56;;;;;;;;;;;;;;;;;;1038706;28;4096;-52
2023/01/26 00:48:26;;;;;;;;;;;;;;;;;;1034419;28;2970;-52
2023/01/26 00:48:56;;;;;;;;;;;;;;;;;;1033576;28;4069;-52
2023/01/26 00:49:26;;;;;;;;;;;;;;;;;;1034108;28;2098;-49
2023/01/26 00:49:57;;;;;;;;;;;;;;;;;;1034923;28;4081;-51
2023/01/26 00:50:27;;;;;;;;;;;;;;;;;;1040670;28;2227;-51
2023/01/26 00:50:57;;;;;;;;;;;;;;;;;;1038442;28;4160;-51
2023/01/26 00:51:28;;;;;;;;;;;;;;;;;;1040081;28;2723;-51
2023/01/26 00:51:58;;;;;;;;;;;;;;;;;;1037780;28;4208;-51
2023/01/26 00:52:28;;;;;;;;;;;;;;;;;;1038848;28;1610;-50
2023/01/26 00:52:59;;;;;;;;;;;;;;;;;;1040938;28;3988;-50
2023/01/26 00:53:29;;;;;;;;;;;;;;;;;;1041264;28;2613;-50
2023/01/26 00:53:59;;;;;;;;;;;;;;;;;;1037365;28;3892;-51
2023/01/26 00:54:30;;;;;;;;;;;;;;;;;;1038784;28;1706;-53
2023/01/26 00:55:00;;;;;;;;;;;;;;;;;;1034212;28;4030;-50
2023/01/26 00:55:33;;;;;;;;;;;;;;;;;;1034326;28;1799;-48
2023/01/26 00:56:04;;;;;;;;;;;;;;;;;;1036252;28;3802;-48
2023/01/26 00:56:34;;;;;;;;;;;;;;;;;;1038140;28;1961;-51
2023/01/26 00:57:04;;;;;;;;;;;;;;;;;;1038785;28;3784;-53
2023/01/26 00:57:35;;;;;;;;;;;;;;;;;;1038483;28;2181;-52
2023/01/26 00:58:06;;;;;;;;;;;;;;;;;;1033918;28;3891;-51
2023/01/26 00:58:36;;;;;;;;;;;;;;;;;;1034170;28;1730;-52
2023/01/26 00:59:07;;;;;;;;;;;;;;;;;;1032180;28;3879;-53
2023/01/26 00:59:37;;;;;;;;;;;;;;;;;;1037484;28;2805;-51
2023/01/26 01:00:12;;;;;;;;;;;;;;;;;;1038890;28;4406;-48
2023/01/26 01:00:42;;;;;;;;;;;;;;;;;;1038770;28;2679;-55
2023/01/26 01:01:12;;;;;;;;;;;;;;;;;;1038602;28;4168;-50
2023/01/26 01:01:43;;;;;;;;;;;;;;;;;;1040011;28;3117;-50
2023/01/26 01:02:13;;;;;;;;;;;;;;;;;;1038662;28;3951;-51
2023/01/26 01:02:44;;;;;;;;;;;;;;;;;;1039088;28;2719;-52
2023/01/26 01:03:14;;;;;;;;;;;;;;;;;;1039907;28;4349;-51
2023/01/26 01:03:44;;;;;;;;;;;;;;;;;;1038602;28;2184;-52
2023/01/26 01:04:15;;;;;;;;;;;;;;;;;;1038441;28;3924;-53
2023/01/26 01:04:45;;;;;;;;;;;;;;;;;;1039423;28;2147;-53
2023/01/26 01:05:15;;;;;;;;;;;;;;;;;;1039924;28;4054;-50
2023/01/26 01:05:46;;;;;;;;;;;;;;;;;;1041057;28;2148;-53
2023/01/26 01:06:16;;;;;;;;;;;;;;;;;;1040339;28;3865;-53
2023/01/26 01:06:47;;;;;;;;;;;;;;;;;;1038764;28;3893;-53
2023/01/26 01:07:17;;;;;;;;;;;;;;;;;;1040413;28;2363;-52
2023/01/26 01:07:47;;;;;;;;;;;;;;;;;;1038302;28;3963;-50
2023/01/26 01:08:17;;;;;;;;;;;;;;;;;;1035906;28;2304;-50
2023/01/26 01:08:48;;;;;;;;;;;;;;;;;;1032636;28;3808;-51
2023/01/26 01:09:18;;;;;;;;;;;;;;;;;;1036466;28;2900;-55
2023/01/26 01:09:48;;;;;;;;;;;;;;;;;;1035121;28;4939;-52
2023/01/26 01:10:19;;;;;;;;;;;;;;;;;;1040576;28;3022;-54
2023/01/26 01:10:49;;;;;;;;;;;;;;;;;;1041880;28;4490;-49
2023/01/26 01:11:19;;;;;;;;;;;;;;;;;;1039948;28;2727;-54
2023/01/26 01:11:49;;;;;;;;;;;;;;;;;;1039886;28;4396;-52
2023/01/26 01:12:20;;;;;;;;;;;;;;;;;;1038554;28;2685;-50
2023/01/26 01:12:50;;;;;;;;;;;;;;;;;;1040732;28;3865;-52
2023/01/26 01:13:20;;;;;;;;;;;;;;;;;;1042053;28;3211;-53
2023/01/26 01:13:50;;;;;;;;;;;;;;;;;;1039775;28;4466;-52
2023/01/26 01:14:27;;;;;;;;;;;;;;;;;;1038232;28;2042;-51
2023/01/26 01:14:58;;;;;;;;;;;;;;;;;;1039107;28;3971;-51
2023/01/26 01:15:28;;;;;;;;;;;;;;;;;;1041126;28;2769;-55
2023/01/26 01:15:58;;;;;;;;;;;;;;;;;;1039907;28;3847;-53
2023/01/26 01:16:28;;;;;;;;;;;;;;;;;;1040911;28;2171;-49
2023/01/26 01:16:59;;;;;;;;;;;;;;;;;;1039922;28;3893;-50
2023/01/26 01:17:29;;;;;;;;;;;;;;;;;;1039067;28;2782;-50
2023/01/26 01:17:59;;;;;;;;;;;;;;;;;;1038506;28;4084;-52
2023/01/26 01:18:29;;;;;;;;;;;;;;;;;;1040058;28;1989;-51
2023/01/26 01:19:00;;;;;;;;;;;;;;;;;;1040328;28;3881;-54
2023/01/26 01:19:30;;;;;;;;;;;;;;;;;;1041942;28;2779;-53
2023/01/26 01:20:01;;;;;;;;;;;;;;;;;;1038747;28;3791;-51
2023/01/26 01:20:31;;;;;;;;;;;;;;;;;;1038569;28;2705;-54
2023/01/26 01:21:08;;;;;;;;;;;;;;;;;;1038197;28;4446;-49
2023/01/26 01:21:38;;;;;;;;;;;;;;;;;;1039152;28;2839;-50
2023/01/26 01:22:09;;;;;;;;;;;;;;;;;;1038999;28;6029;-51
2023/01/26 01:22:39;;;;;;;;;;;;;;;;;;1040533;28;3337;-48
2023/01/26 01:23:09;;;;;;;;;;;;;;;;;;1039796;28;4420;-51
2023/01/26 01:23:40;;;;;;;;;;;;;;;;;;1040456;28;2061;-51
2023/01/26 01:24:10;;;;;;;;;;;;;;;;;;1041558;28;4011;-50
2023/01/26 01:24:41;;;;;;;;;;;;;;;;;;1040348;28;2622;-54
2023/01/26 01:25:11;;;;;;;;;;;;;;;;;;1041695;28;4368;-52
2023/01/26 01:25:41;;;;;;;;;;;;;;;;;;1038644;28;2156;-49
2023/01/26 01:26:13;;;;;;;;;;;;;;;;;;1038064;28;4000;-51
2023/01/26 01:26:43;;;;;;;;;;;;;;;;;;1037646;28;2146;-54
2023/01/26 01:27:13;;;;;;;;;;;;;;;;;;1036918;28;3913;-51
2023/01/26 01:27:43;;;;;;;;;;;;;;;;;;1042191;28;2442;-53
2023/01/26 01:28:14;;;;;;;;;;;;;;;;;;1042596;28;3719;-55
2023/01/26 01:28:44;;;;;;;;;;;;;;;;;;1040646;28;2903;-51
2023/01/26 01:29:14;;;;;;;;;;;;;;;;;;1041018;28;3968;-50
2023/01/26 01:29:51;;;;;;;;;;;;;;;;;;1039173;28;1608;-50
2023/01/26 01:30:28;;;;;;;;;;;;;;;;;;1041141;28;3819;-52
2023/01/26 01:31:06;;;;;;;;;;;;;;;;;;1039079;28;4378;-53
2023/01/26 01:31:37;;;;;;;;;;;;;;;;;;1039608;28;2068;-50
2023/01/26 01:32:07;;;;;;;;;;;;;;;;;;1040336;28;4006;-49
2023/01/26 01:32:38;;;;;;;;;;;;;;;;;;1040503;28;2697;-52
2023/01/26 01:33:08;;;;;;;;;;;;;;;;;;1040382;28;3922;-51
2023/01/26 01:33:39;;;;;;;;;;;;;;;;;;1039442;28;2644;-54
2023/01/26 01:34:10;;;;;;;;;;;;;;;;;;1039212;28;4304;-52
2023/01/26 01:34:40;;;;;;;;;;;;;;;;;;1040367;28;2704;-54
2023/01/26 01:35:10;;;;;;;;;;;;;;;;;;1040252;28;3733;-53
2023/01/26 01:35:40;;;;;;;;;;;;;;;;;;1040189;28;2763;-51
2023/01/26 01:36:15;;;;;;;;;;;;;;;;;;1040402;28;3786;-50
2023/01/26 01:36:45;;;;;;;;;;;;;;;;;;1040852;28;2933;-50
2023/01/26 01:37:16;;;;;;;;;;;;;;;;;;1042353;28;4037;-52
2023/01/26 01:37:46;;;;;;;;;;;;;;;;;;1039095;28;4020;-50
2023/01/26 01:38:16;;;;;;;;;;;;;;;;;;1039171;28;1836;-51
2023/01/26 01:38:47;;;;;;;;;;;;;;;;;;1039534;28;4394;-53
2023/01/26 01:39:17;;;;;;;;;;;;;;;;;;1039095;28;1976;-51
2023/01/26 01:39:48;;;;;;;;;;;;;;;;;;1040035;28;4056;-53
2023/01/26 01:40:18;;;;;;;;;;;;;;;;;;1040308;28;1875;-53
2023/01/26 01:40:48;;;;;;;;;;;;;;;;;;1040282;28;4480;-50
2023/01/26 01:41:20;;;;;;;;;;;;;;;;;;1040231;28;2803;-50
2023/01/26 01:41:50;;;;;;;;;;;;;;;;;;1041077;28;4556;-53
2023/01/26 01:42:21;;;;;;;;;;;;;;;;;;1039260;28;2695;-53
2023/01/26 01:42:51;;;;;;;;;;;;;;;;;;1040798;28;3786;-51
2023/01/26 01:43:22;;;;;;;;;;;;;;;;;;1039453;28;2110;-50
2023/01/26 01:45:37;;;;;;;;;;;;;;;;;;1036858;28;4195;-52
2023/01/26 01:46:26;;;;;;;;;;;;;;;;;;1040312;28;3963;-52
2023/01/26 01:46:56;;;;;;;;;;;;;;;;;;1041468;28;3976;-53
2023/01/26 01:49:19;;;;;;;;;;;;;;;;;;1038938;28;4195;-52
2023/01/26 01:50:14;;;;;;;;;;;;;;;;;;1038767;28;4062;-49
2023/01/26 01:52:51;;;;;;;;;;;;;;;;;;1039268;28;4002;-54
2023/01/26 01:53:26;;;;;;;;;;;;;;;;;;1037490;28;3759;-53
2023/01/26 01:53:58;;;;;;;;;;;;;;;;;;1040540;28;3831;-53
2023/01/26 01:54:39;;;;;;;;;;;;;;;;;;1036126;28;1905;-54
2023/01/26 01:55:11;;;;;;;;;;;;;;;;;;1035006;28;3898;-53
2023/01/26 01:55:41;;;;;;;;;;;;;;;;;;1035224;28;2755;-50
2023/01/26 01:58:10;;;;;;;;;;;;;;;;;;1039101;28;4226;-50
2023/01/26 01:58:41;;;;;;;;;;;;;;;;;;1039468;28;4117;-50
2023/01/26 01:59:12;;;;;;;;;;;;;;;;;;1040695;28;3996;-51
2023/01/26 01:59:44;;;;;;;;;;;;;;;;;;1041422;28;3155;-51
2023/01/26 02:00:17;;;;;;;;;;;;;;;;;;1040032;28;4327;-49
2023/01/26 02:00:47;;;;;;;;;;;;;;;;;;1038831;28;4538;-53
2023/01/26 02:01:18;;;;;;;;;;;;;;;;;;1035712;28;3097;-51
2023/01/26 02:01:50;;;;;;;;;;;;;;;;;;1035929;28;3898;-50
2023/01/26 02:02:20;;;;;;;;;;;;;;;;;;1036288;28;2745;-51
2023/01/26 02:03:09;;;;;;;;;;;;;;;;;;1035143;28;3801;-52
2023/01/26 02:03:40;;;;;;;;;;;;;;;;;;1040269;28;2668;-54
2023/01/26 02:04:11;;;;;;;;;;;;;;;;;;1039560;28;4249;-51
2023/01/26 02:04:41;;;;;;;;;;;;;;;;;;1041175;28;2700;-51
2023/01/26 02:05:21;;;;;;;;;;;;;;;;;;1040010;28;3871;-51
2023/01/26 02:14:32;;;;;;;;;;;;;;;;;;1038652;28;4023;-51
2023/01/26 02:15:09;;;;;;;;;;;;;;;;;;1038994;28;3971;-52
2023/01/26 02:15:39;;;;;;;;;;;;;;;;;;1039969;28;3013;-50
2023/01/26 02:16:09;;;;;;;;;;;;;;;;;;1038799;28;4047;-52
2023/01/26 02:16:40;;;;;;;;;;;;;;;;;;1038742;28;2710;-54
2023/01/26 02:17:10;;;;;;;;;;;;;;;;;;1038442;28;4164;-50
2023/01/26 02:17:40;;;;;;;;;;;;;;;;;;1039156;28;2695;-54
2023/01/26 02:18:11;;;;;;;;;;;;;;;;;;1041039;28;3879;-48
2023/01/26 02:19:18;;;;;;;;;;;;;;;;;;1040883;28;2679;-52
2023/01/26 02:20:04;;;;;;;;;;;;;;;;;;1039290;28;4201;-51
2023/01/26 02:20:34;;;;;;;;;;;;;;;;;;1041848;28;3043;-50
2023/01/26 02:21:06;;;;;;;;;;;;;;;;;;1042408;28;4045;-49
2023/01/26 02:21:37;;;;;;;;;;;;;;;;;;1041815;28;2766;-54
2023/01/26 02:22:12;;;;;;;;;;;;;;;;;;1039891;28;4405;-52
2023/01/26 02:23:04;;;;;;;;;;;;;;;;;;1040008;28;2510;-50
2023/01/26 02:23:47;;;;;;;;;;;;;;;;;;1040249;28;3974;-53
2023/01/26 02:24:23;;;;;;;;;;;;;;;;;;1039921;28;3843;-51
2023/01/26 02:24:58;;;;;;;;;;;;;;;;;;1039481;28;3780;-51
2023/01/26 02:25:37;;;;;;;;;;;;;;;;;;1034963;28;2764;-50
2023/01/26 02:26:12;;;;;;;;;;;;;;;;;;1035372;28;4340;-50
2023/01/26 02:26:43;;;;;;;;;;;;;;;;;;1036339;28;2813;-53
2023/01/26 02:27:13;;;;;;;;;;;;;;;;;;1036298;28;3866;-48
2023/01/26 02:27:43;;;;;;;;;;;;;;;;;;1042015;28;2899;-51
2023/01/26 02:28:14;;;;;;;;;;;;;;;;;;1041435;28;3813;-49
2023/01/26 02:28:45;;;;;;;;;;;;;;;;;;1040385;28;2443;-50
2023/01/26 02:29:16;;;;;;;;;;;;;;;;;;1041275;28;3912;-53
2023/01/26 02:29:52;;;;;;;;;;;;;;;;;;1038178;28;2932;-53
2023/01/26 02:30:30;;;;;;;;;;;;;;;;;;1041001;28;4032;-52
2023/01/26 02:31:00;;;;;;;;;;;;;;;;;;1040358;28;3956;-56
2023/01/26 02:31:30;;;;;;;;;;;;;;;;;;1039255;28;2706;-48
2023/01/26 02:32:01;;;;;;;;;;;;;;;;;;1040464;28;3864;-51
2023/01/26 02:32:31;;;;;;;;;;;;;;;;;;1039178;28;2928;-55
2023/01/26 02:33:01;;;;;;;;;;;;;;;;;;1039787;28;3965;-49
2023/01/26 02:33:32;;;;;;;;;;;;;;;;;;1036851;28;2656;-51
2023/01/26 02:34:03;;;;;;;;;;;;;;;;;;1037302;28;4056;-54
2023/01/26 02:34:33;;;;;;;;;;;;;;;;;;1038425;28;2683;-51
2023/01/26 02:35:03;;;;;;;;;;;;;;;;;;1037456;28;4107;-49
2023/01/26 02:35:34;;;;;;;;;;;;;;;;;;1039489;28;2766;-53
2023/01/26 02:36:05;;;;;;;;;;;;;;;;;;1040265;28;4596;-49
2023/01/26 02:36:35;;;;;;;;;;;;;;;;;;1039769;28;1764;-48
2023/01/26 02:37:12;;;;;;;;;;;;;;;;;;1038923;28;4239;-55
2023/01/26 02:37:42;;;;;;;;;;;;;;;;;;1041260;28;2810;-53
2023/01/26 02:38:12;;;;;;;;;;;;;;;;;;1041287;28;3892;-52
2023/01/26 02:38:50;;;;;;;;;;;;;;;;;;1040842;28;2049;-55
2023/01/26 02:39:39;;;;;;;;;;;;;;;;;;1041259;28;4854;-49
2023/01/26 02:40:19;;;;;;;;;;;;;;;;;;1040534;28;3883;-51
2023/01/26 02:40:52;;;;;;;;;;;;;;;;;;1039047;28;4130;-50
2023/01/26 02:43:01;;;;;;;;;;;;;;;;;;1039525;28;4552;-51
2023/01/26 02:43:32;;;;;;;;;;;;;;;;;;1039424;28;2921;-52
2023/01/26 02:44:03;;;;;;;;;;;;;;;;;;1039576;28;3927;-53
2023/01/26 02:44:33;;;;;;;;;;;;;;;;;;1040091;28;2761;-51
2023/01/26 02:45:05;;;;;;;;;;;;;;;;;;1040200;28;3798;-54
2023/01/26 02:45:36;;;;;;;;;;;;;;;;;;1036199;28;2672;-51
2023/01/26 02:46:06;;;;;;;;;;;;;;;;;;1037612;28;4027;-49
2023/01/26 02:46:37;;;;;;;;;;;;;;;;;;1036020;28;2816;-55
2023/01/26 02:47:11;;;;;;;;;;;;;;;;;;1037563;28;3786;-50
2023/01/26 02:47:43;;;;;;;;;;;;;;;;;;1041438;28;3462;-50
2023/01/26 02:49:45;;;;;;;;;;;;;;;;;;1035900;28;4146;-55
2023/01/26 02:49:53;;;;;;;;;;;;;;;;;;1036822;28;3930;-53
2023/01/26 02:50:23;;;;;;;;;;;;;;;;;;1039995;28;1971;-52
2023/01/26 02:50:53;;;;;;;;;;;;;;;;;;1039620;28;4379;-50
2023/01/26 02:51:23;;;;;;;;;;;;;;;;;;1041562;28;2137;-50
2023/01/26 02:51:54;;;;;;;;;;;;;;;;;;1040963;28;4044;-48
2023/01/26 02:52:25;;;;;;;;;;;;;;;;;;1038890;28;2657;-51
2023/01/26 02:52:56;;;;;;;;;;;;;;;;;;1040806;28;4036;-54
2023/01/26 02:53:26;;;;;;;;;;;;;;;;;;1040230;28;2880;-48
2023/01/26 02:53:56;;;;;;;;;;;;;;;;;;1040132;28;4121;-51
2023/01/26 02:55:21;;;;;;;;;;;;;;;;;;1036003;28;3945;-53
2023/01/26 02:55:52;;;;;;;;;;;;;;;;;;1035894;28;3919;-52
2023/01/26 02:56:22;;;;;;;;;;;;;;;;;;1039389;28;2671;-51
2023/01/26 02:56:52;;;;;;;;;;;;;;;;;;1038712;28;3937;-50
2023/01/26 02:57:23;;;;;;;;;;;;;;;;;;1034473;28;3301;-53
2023/01/26 02:58:00;;;;;;;;;;;;;;;;;;1033703;28;4069;-51
2023/01/26 02:58:31;;;;;;;;;;;;;;;;;;1029784;28;2980;-52
2023/01/26 02:59:01;;;;;;;;;;;;;;;;;;1031028;28;4411;-52
2023/01/26 02:59:31;;;;;;;;;;;;;;;;;;1033169;28;2868;-49
2023/01/26 03:00:08;;;;;;;;;;;;;;;;;;1037425;28;4488;-53
2023/01/26 03:00:40;;;;;;;;;;;;;;;;;;1040488;28;2775;-53
2023/01/26 03:01:11;;;;;;;;;;;;;;;;;;1039425;28;3820;-52
2023/01/26 03:01:41;;;;;;;;;;;;;;;;;;1040415;28;2623;-49
2023/01/26 03:02:11;;;;;;;;;;;;;;;;;;1038900;28;4147;-50
2023/01/26 03:02:42;;;;;;;;;;;;;;;;;;1039496;28;2888;-52
2023/01/26 03:03:23;;;;;;;;;;;;;;;;;;1039895;28;3760;-53
2023/01/26 03:03:53;;;;;;;;;;;;;;;;;;1040057;28;4490;-52
2023/01/26 03:04:24;;;;;;;;;;;;;;;;;;1040779;28;2741;-53
2023/01/26 03:04:54;;;;;;;;;;;;;;;;;;1040357;28;3987;-52
2023/01/26 03:05:25;;;;;;;;;;;;;;;;;;1042286;28;2756;-51
2023/01/26 03:05:55;;;;;;;;;;;;;;;;;;1039219;28;3781;-53
2023/01/26 03:06:25;;;;;;;;;;;;;;;;;;1039697;28;1387;-52
2023/01/26 03:06:55;;;;;;;;;;;;;;;;;;1034681;28;4029;-52
2023/01/26 03:07:25;;;;;;;;;;;;;;;;;;1036246;28;2988;-52
2023/01/26 03:07:56;;;;;;;;;;;;;;;;;;1037053;28;4027;-54
2023/01/26 03:08:26;;;;;;;;;;;;;;;;;;1033700;28;1728;-52
2023/01/26 03:08:56;;;;;;;;;;;;;;;;;;1035668;28;3940;-50
2023/01/26 03:09:26;;;;;;;;;;;;;;;;;;1038503;28;2070;-50
2023/01/26 03:09:59;;;;;;;;;;;;;;;;;;1037058;28;3958;-52
2023/01/26 03:10:30;;;;;;;;;;;;;;;;;;1040493;28;2882;-50
2023/01/26 03:11:00;;;;;;;;;;;;;;;;;;1040288;28;4045;-54
2023/01/26 03:11:40;;;;;;;;;;;;;;;;;;1040156;28;2656;-51
2023/01/26 03:12:11;;;;;;;;;;;;;;;;;;1041116;28;4091;-52
2023/01/26 03:12:42;;;;;;;;;;;;;;;;;;1039882;28;2053;-50
2023/01/26 03:13:12;;;;;;;;;;;;;;;;;;1039151;28;3793;-53
2023/01/26 03:13:42;;;;;;;;;;;;;;;;;;1041140;28;2747;-51
2023/01/26 03:14:14;;;;;;;;;;;;;;;;;;1039061;28;3971;-53
2023/01/26 03:14:44;;;;;;;;;;;;;;;;;;1033247;28;2140;-54
2023/01/26 03:16:06;;;;;;;;;;;;;;;;;;1032502;28;4222;-55
2023/01/26 03:16:37;;;;;;;;;;;;;;;;;;1037651;28;2732;-52
2023/01/26 03:17:07;;;;;;;;;;;;;;;;;;1039067;28;5250;-53
2023/01/26 03:17:37;;;;;;;;;;;;;;;;;;1041241;28;2363;-52
2023/01/26 03:28:06;;;;;;;;;;;;;;;;;;1025487;28;4046;-52
2023/01/26 03:28:36;;;;;;;;;;;;;;;;;;1025048;28;2815;-49
2023/01/26 03:29:06;;;;;;;;;;;;;;;;;;1026297;28;4110;-52
2023/01/26 03:29:38;;;;;;;;;;;;;;;;;;1025573;28;2834;-49
2023/01/26 03:30:15;;;;;;;;;;;;;;;;;;1024397;28;3884;-52
2023/01/26 03:30:54;;;;;;;;;;;;;;;;;;1025052;28;1935;-49
2023/01/26 03:31:31;;;;;;;;;;;;;;;;;;1024115;28;3693;-53
2023/01/26 03:32:01;;;;;;;;;;;;;;;;;;1022458;28;3801;-54
2023/01/26 03:32:32;;;;;;;;;;;;;;;;;;1026043;28;2315;-50
2023/01/26 03:33:02;;;;;;;;;;;;;;;;;;1025531;28;3963;-53
2023/01/26 03:33:32;;;;;;;;;;;;;;;;;;1025693;28;2922;-52
2023/01/26 03:34:02;;;;;;;;;;;;;;;;;;1029232;28;4048;-52
2023/01/26 03:34:33;;;;;;;;;;;;;;;;;;1037292;28;2899;-51
2023/01/26 03:35:03;;;;;;;;;;;;;;;;;;1037153;28;3946;-49
2023/01/26 03:35:34;;;;;;;;;;;;;;;;;;1036341;28;2439;-49
2023/01/26 03:36:04;;;;;;;;;;;;;;;;;;1035146;28;3878;-54
2023/01/26 03:36:36;;;;;;;;;;;;;;;;;;1034859;28;2729;-55
2023/01/26 03:37:06;;;;;;;;;;;;;;;;;;1035860;28;3989;-54
2023/01/26 03:37:42;;;;;;;;;;;;;;;;;;1034512;28;2657;-48
2023/01/26 03:38:12;;;;;;;;;;;;;;;;;;1035483;28;3975;-53
2023/01/26 03:38:42;;;;;;;;;;;;;;;;;;1036051;28;2825;-50
2023/01/26 03:41:06;;;;;;;;;;;;;;;;;;1036691;28;3786;-53
2023/01/26 03:56:36;;;;;;;;;;;;;;;;;;1035460;28;2632;-52
2023/01/26 03:57:06;;;;;;;;;;;;;;;;;;1035657;28;4014;-53
2023/01/26 03:57:37;;;;;;;;;;;;;;;;;;1035006;28;1969;-55
2023/01/26 03:58:08;;;;;;;;;;;;;;;;;;1035241;28;3816;-52
2023/01/26 03:58:38;;;;;;;;;;;;;;;;;;1036007;28;2773;-55
2023/01/26 03:59:08;;;;;;;;;;;;;;;;;;1034390;28;3823;-49
2023/01/26 03:59:39;;;;;;;;;;;;;;;;;;1036084;28;2243;-53
2023/01/26 04:00:10;;;;;;;;;;;;;;;;;;1035789;28;4001;-53
2023/01/26 04:00:40;;;;;;;;;;;;;;;;;;1036241;28;2768;-54
2023/01/26 04:01:18;;;;;;;;;;;;;;;;;;1035906;28;4643;-50
2023/01/26 04:08:25;;;;;;;;;;;;;;;;;;1034719;28;3915;-51
2023/01/26 04:08:56;;;;;;;;;;;;;;;;;;1035611;28;4263;-51
2023/01/26 04:09:26;;;;;;;;;;;;;;;;;;1035504;28;2787;-53
2023/01/26 04:09:56;;;;;;;;;;;;;;;;;;1038028;28;3794;-53
2023/01/26 04:10:27;;;;;;;;;;;;;;;;;;1039099;28;1978;-49
2023/01/26 04:10:57;;;;;;;;;;;;;;;;;;1034770;28;4229;-54
2023/01/26 04:11:27;;;;;;;;;;;;;;;;;;1033148;28;2767;-49
2023/01/26 04:11:57;;;;;;;;;;;;;;;;;;1037152;28;3886;-50
2023/01/26 04:12:28;;;;;;;;;;;;;;;;;;1037856;28;1988;-51
2023/01/26 04:21:58;;;;;;;;;;;;;;;;;;1034468;28;3979;-53
2023/01/26 04:22:28;;;;;;;;;;;;;;;;;;1037208;28;2754;-53
2023/01/26 04:22:58;;;;;;;;;;;;;;;;;;1038211;28;4407;-53
2023/01/26 04:23:28;;;;;;;;;;;;;;;;;;1038075;28;2065;-53
2023/01/26 04:23:59;;;;;;;;;;;;;;;;;;1035514;28;3960;-51
2023/01/26 04:24:29;;;;;;;;;;;;;;;;;;1035280;28;1994;-53
2023/01/26 04:25:00;;;;;;;;;;;;;;;;;;1034400;28;3973;-52
2023/01/26 04:25:30;;;;;;;;;;;;;;;;;;1038773;28;1846;-53
2023/01/26 04:26:00;;;;;;;;;;;;;;;;;;1038039;28;3792;-49
2023/01/26 04:26:33;;;;;;;;;;;;;;;;;;1037746;28;2857;-51
2023/01/26 04:27:03;;;;;;;;;;;;;;;;;;1038634;28;4025;-50
2023/01/26 04:27:34;;;;;;;;;;;;;;;;;;1037787;28;2862;-48
2023/01/26 04:28:04;;;;;;;;;;;;;;;;;;1036394;28;3857;-52
2023/01/26 04:28:34;;;;;;;;;;;;;;;;;;1034474;28;2799;-54
2023/01/26 04:29:06;;;;;;;;;;;;;;;;;;1037441;28;3876;-52
2023/01/26 04:29:37;;;;;;;;;;;;;;;;;;1035597;28;2039;-50
2023/01/26 04:30:14;;;;;;;;;;;;;;;;;;1036827;28;3792;-52
2023/01/26 04:30:51;;;;;;;;;;;;;;;;;;1039671;28;3049;-53
2023/01/26 04:31:21;;;;;;;;;;;;;;;;;;1039322;28;3747;-49
2023/01/26 04:31:51;;;;;;;;;;;;;;;;;;1038365;28;4029;-56
2023/01/26 04:32:22;;;;;;;;;;;;;;;;;;1038280;28;2093;-50
2023/01/26 04:32:52;;;;;;;;;;;;;;;;;;1033770;28;3933;-51
2023/01/26 04:33:22;;;;;;;;;;;;;;;;;;1034496;28;1863;-50
2023/01/26 04:33:53;;;;;;;;;;;;;;;;;;1033082;28;3927;-49
2023/01/26 04:34:23;;;;;;;;;;;;;;;;;;1034899;28;1834;-52
2023/01/26 04:34:53;;;;;;;;;;;;;;;;;;1040711;28;4084;-49
2023/01/26 04:35:23;;;;;;;;;;;;;;;;;;1035317;28;2735;-51
2023/01/26 04:35:54;;;;;;;;;;;;;;;;;;1032912;28;3781;-52
2023/01/26 04:36:24;;;;;;;;;;;;;;;;;;1036205;28;2740;-53
2023/01/26 04:36:54;;;;;;;;;;;;;;;;;;1036402;28;4431;-51
2023/01/26 04:37:24;;;;;;;;;;;;;;;;;;1038971;28;2883;-50
2023/01/26 04:37:55;;;;;;;;;;;;;;;;;;1040188;28;4429;-52
2023/01/26 04:38:25;;;;;;;;;;;;;;;;;;1039326;28;1651;-52
2023/01/26 04:38:55;;;;;;;;;;;;;;;;;;1038121;28;3776;-55
2023/01/26 04:39:26;;;;;;;;;;;;;;;;;;1035629;28;2030;-51
2023/01/26 04:39:56;;;;;;;;;;;;;;;;;;1033999;28;4039;-52
2023/01/26 04:40:26;;;;;;;;;;;;;;;;;;1034085;28;2976;-51
2023/01/26 04:41:03;;;;;;;;;;;;;;;;;;1036018;28;4073;-52
2023/01/26 04:41:34;;;;;;;;;;;;;;;;;;1033807;28;1858;-49
2023/01/26 04:42:04;;;;;;;;;;;;;;;;;;1035225;28;3950;-52
2023/01/26 04:42:34;;;;;;;;;;;;;;;;;;1041355;28;2125;-51
2023/01/26 04:43:04;;;;;;;;;;;;;;;;;;1034193;28;3877;-50
2023/01/26 04:43:35;;;;;;;;;;;;;;;;;;1035448;28;2876;-52
2023/01/26 04:44:05;;;;;;;;;;;;;;;;;;1034085;28;4022;-48